Time;durP1;ratioP1;P1;durP2;ratioP2;P2;SDS_P1;SDS_P2;PMS_P1;PMS_P2;Temp;Humidity;BMP_temperature;BMP_pressure;BME280_temperature;BME280_humidity;BME280_pressure;Samples;Min_cycle;Max_cycle;Signal;HPM_P1;HPM_P2
2022/01/10 00:06:58;;;;;;;191.00;75.20;;;;;;;-2.71;75.65;97819.63;432394;1271;97942;-40
2022/01/10 00:17:05;;;;;;;241.60;87.40;;;;;;;-2.69;75.83;97828.98;432448;1271;109516;-40
2022/01/10 00:27:12;;;;;;;256.60;90.30;;;;;;;-2.70;75.91;97838.48;432493;1271;108722;-40
2022/01/10 00:37:20;;;;;;;249.50;87.00;;;;;;;-2.80;76.06;97843.87;432352;1270;96714;-40
2022/01/10 00:47:27;;;;;;;221.80;79.60;;;;;;;-2.90;76.05;97853.89;432283;1270;111070;-41
2022/01/10 00:57:34;;;;;;;221.90;81.20;;;;;;;-2.98;76.24;97871.79;432343;1271;108732;-41
2022/01/10 01:07:42;;;;;;;215.20;77.30;;;;;;;-3.13;76.32;97880.77;432261;1270;97913;-41
2022/01/10 01:28:05;;;;;;;154.60;79.80;;;;;;;-3.40;76.37;97902.59;432307;1269;108799;-41
2022/01/10 01:38:12;;;;;;;140.90;70.80;;;;;;;-3.39;76.25;97910.23;432350;1270;97521;-41
2022/01/10 01:48:19;;;;;;;185.10;74.20;;;;;;;-3.38;76.42;97919.78;432435;1270;111296;-41
2022/01/10 01:58:27;;;;;;;172.20;71.80;;;;;;;-3.48;76.42;97927.16;432358;1270;108881;-43
2022/01/10 02:08:36;;;;;;;167.40;69.40;;;;;;;-3.70;76.29;97944.31;432308;1270;97916;-41
2022/01/10 02:18:44;;;;;;;180.10;72.60;;;;;;;-3.87;76.51;97956.35;433187;1262;110352;-40
2022/01/10 02:28:52;;;;;;;152.10;63.20;;;;;;;-4.08;76.63;97977.71;432776;1269;108974;-42
2022/01/10 02:39:02;;;;;;;159.20;63.90;;;;;;;-4.21;76.80;97981.48;433168;1270;97939;-40
2022/01/10 02:59:16;;;;;;;152.50;69.40;;;;;;;-4.44;77.10;98005.63;433252;1269;109251;-40
2022/01/10 03:09:24;;;;;;;156.10;81.00;;;;;;;-4.45;76.95;98014.81;433143;1269;97520;-40
2022/01/10 03:19:31;;;;;;;129.90;65.10;;;;;;;-4.51;76.66;98029.69;433174;1269;108638;-40
2022/01/10 03:29:38;;;;;;;151.10;64.30;;;;;;;-4.53;76.88;98052.21;429131;1269;5464409;-40
2022/01/10 03:39:46;;;;;;;176.30;72.40;;;;;;;-4.59;76.96;98061.59;432363;1270;110702;-40
2022/01/10 03:49:53;;;;;;;178.30;69.50;;;;;;;-4.80;76.93;98071.02;433129;1269;106551;-40
2022/01/10 04:00:00;;;;;;;178.00;74.70;;;;;;;-5.06;76.91;98080.17;433101;1269;108749;-40
2022/01/10 04:10:09;;;;;;;164.60;67.90;;;;;;;-5.40;77.01;98090.95;433072;1270;96612;-40
2022/01/10 04:20:15;;;;;;;153.90;78.80;;;;;;;-5.48;77.16;98100.98;433409;1269;111107;-41
2022/01/10 04:30:22;;;;;;;129.90;65.90;;;;;;;-5.41;77.21;98109.26;432988;1269;107586;-40
2022/01/10 04:40:30;;;;;;;126.60;58.80;;;;;;;-5.21;77.35;98125.30;433210;1269;98199;-40
2022/01/10 05:01:01;;;;;;;126.00;60.20;;;;;;;-5.26;77.19;98166.81;432967;1269;97503;-41
2022/01/10 05:11:09;;;;;;;126.50;64.10;;;;;;;-5.37;77.21;98185.33;433176;1269;111030;-39
2022/01/10 05:21:17;;;;;;;125.80;63.00;;;;;;;-5.36;77.32;98197.42;433146;1269;109230;-42
2022/01/10 05:31:25;;;;;;;136.50;66.10;;;;;;;-5.36;77.29;98223.16;433028;1270;97929;-40
2022/01/10 05:41:32;;;;;;;122.60;61.30;;;;;;;-5.35;77.12;98240.63;433164;1269;108091;-43
2022/01/10 05:51:39;;;;;;;139.60;69.10;;;;;;;-5.39;77.43;98255.63;433192;1269;97925;-40
2022/01/10 06:01:47;;;;;;;136.70;65.10;;;;;;;-5.45;77.38;98267.65;433199;1269;111276;-40
2022/01/10 06:11:55;;;;;;;141.10;69.70;;;;;;;-5.54;77.18;98282.92;433291;1269;108774;-40
2022/01/10 06:22:02;;;;;;;175.90;79.30;;;;;;;-5.64;77.33;98303.98;433157;1270;97936;-40
2022/01/10 06:32:10;;;;;;;218.50;91.40;;;;;;;-5.65;77.39;98337.46;433353;1270;107788;-41
2022/01/10 06:42:17;;;;;;;196.10;86.90;;;;;;;-5.69;77.42;98367.98;433512;1269;97897;-44
2022/01/10 06:52:25;;;;;;;183.30;87.30;;;;;;;-5.77;77.30;98394.63;433321;1268;110972;-41
2022/01/10 07:02:32;;;;;;;133.30;65.70;;;;;;;-5.75;77.72;98419.69;433308;1269;108953;-43
2022/01/10 07:12:40;;;;;;;131.50;63.30;;;;;;;-5.42;78.22;98440.03;432346;1270;97974;-42
2022/01/10 07:22:47;;;;;;;105.40;55.50;;;;;;;-5.08;78.16;98470.67;433373;1269;108851;-41
2022/01/10 07:32:54;;;;;;;131.90;59.00;;;;;;;-4.84;78.09;98488.16;433185;1269;98038;-40
2022/01/10 07:43:01;;;;;;;109.70;60.90;;;;;;;-4.66;78.21;98502.40;433086;1269;110933;-40
2022/01/10 07:53:09;;;;;;;91.40;45.10;;;;;;;-4.42;78.38;98520.70;433191;1269;108838;-40
2022/01/10 08:03:16;;;;;;;90.80;45.00;;;;;;;-4.22;78.55;98537.45;433041;1270;97906;-42
2022/01/10 08:23:31;;;;;;;86.30;44.10;;;;;;;-3.72;78.42;98571.13;433177;1269;97882;-41
2022/01/10 08:33:37;;;;;;;77.00;39.30;;;;;;;-3.56;78.54;98589.63;433167;1269;111024;-40
2022/01/10 08:43:44;;;;;;;83.90;40.60;;;;;;;-3.42;78.68;98618.34;432516;1270;108986;-41
2022/01/10 08:53:52;;;;;;;123.70;48.10;;;;;;;-3.43;78.55;98642.70;433292;1269;97782;-40
2022/01/10 09:04:00;;;;;;;93.30;45.50;;;;;;;-3.46;78.62;98657.64;433223;1270;108987;-41
2022/01/10 09:14:08;;;;;;;90.80;47.70;;;;;;;-3.59;78.63;98677.78;433125;1270;97651;-40
2022/01/10 09:24:16;;;;;;;87.50;44.00;;;;;;;-3.93;78.95;98699.95;432984;1270;111083;-41
2022/01/10 09:34:23;;;;;;;95.40;47.70;;;;;;;-4.11;79.13;98713.77;433054;1269;108951;-40
2022/01/10 09:44:30;;;;;;;87.00;40.50;;;;;;;-4.31;79.29;98741.89;433030;1269;97922;-42
2022/01/10 09:54:38;;;;;;;83.90;38.80;;;;;;;-4.53;79.64;98766.16;433013;1270;108864;-41
2022/01/10 10:04:46;;;;;;;80.20;38.10;;;;;;;-4.61;79.82;98782.14;433039;1269;96772;-41
2022/01/10 10:24:58;;;;;;;110.10;42.00;;;;;;;-4.62;80.13;98801.68;432790;1269;108381;-41
2022/01/10 10:35:04;;;;;;;70.30;31.70;;;;;;;-4.59;80.41;98821.36;432937;1269;98012;-41
2022/01/10 10:45:14;;;;;;;82.60;41.30;;;;;;;-4.45;80.37;98828.59;432959;1269;108842;-41
2022/01/10 10:55:21;;;;;;;77.00;34.90;;;;;;;-4.36;80.72;98845.04;433015;1269;98035;-40
2022/01/10 11:05:29;;;;;;;72.10;32.90;;;;;;;-4.25;80.89;98848.73;432403;1270;111206;-39
2022/01/10 11:25:45;;;;;;;59.50;27.80;;;;;;;-3.87;80.99;98861.64;432439;1270;97913;-41
2022/01/10 11:35:55;;;;;;;54.00;24.30;;;;;;;-3.58;81.13;98873.24;432634;1270;108804;-41
2022/01/10 11:46:09;;;;;;;116.30;45.30;;;;;;;-3.33;80.91;98875.50;432367;1269;98006;-42
2022/01/10 11:56:27;;;;;;;67.00;26.40;;;;;;;-3.35;81.15;98898.09;432445;1270;96665;-41
2022/01/10 12:06:34;;;;;;;60.20;27.90;;;;;;;-3.28;81.11;98921.42;432294;1270;111062;-41
2022/01/10 12:16:42;;;;;;;79.80;32.20;;;;;;;-3.15;81.46;98937.71;432313;1270;108424;-41
2022/01/10 12:26:50;;;;;;;81.50;35.60;;;;;;;-3.05;81.74;98945.33;433100;1269;97897;-45
2022/01/10 12:36:58;;;;;;;61.10;28.70;;;;;;;-2.91;81.68;98953.35;433122;1270;111208;-43
2022/01/10 12:47:04;;;;;;;55.40;25.00;;;;;;;-2.82;81.54;98969.77;433147;1270;108609;-41
2022/01/10 12:57:12;;;;;;;68.60;29.80;;;;;;;-2.74;81.59;98989.59;433086;1269;97770;-44
2022/01/10 13:07:18;;;;;;;91.90;35.60;;;;;;;-2.72;81.81;98998.93;433129;1269;110274;-41
2022/01/10 13:17:34;;;;;;;118.00;46.60;;;;;;;-2.74;81.68;99015.69;433195;1269;108801;-44
2022/01/10 13:27:50;;;;;;;62.50;27.50;;;;;;;-2.70;81.56;99042.36;433067;1269;108853;-44
2022/01/10 13:37:58;;;;;;;52.30;25.00;;;;;;;-2.64;81.74;99062.42;433033;1269;97997;-43
2022/01/10 13:48:04;;;;;;;66.50;30.20;;;;;;;-2.55;81.94;99078.54;433151;1269;109817;-45
2022/01/10 13:58:22;;;;;;;56.00;24.50;;;;;;;-2.62;81.95;99097.08;435534;1270;97361;-44
2022/01/10 14:08:30;;;;;;;57.20;25.40;;;;;;;-2.53;82.10;99118.06;433038;1269;96637;-42
2022/01/10 14:18:40;;;;;;;70.60;28.90;;;;;;;-2.47;82.08;99136.84;433121;1269;107974;-41
2022/01/10 14:28:49;;;;;;;73.10;31.70;;;;;;;-2.55;82.42;99153.55;433104;1270;97919;-43
2022/01/10 14:38:55;;;;;;;63.50;26.50;;;;;;;-2.54;82.41;99162.27;433115;1270;97930;-41
2022/01/10 14:49:03;;;;;;;69.30;28.80;;;;;;;-2.50;82.73;99171.95;433053;1270;108858;-45
2022/01/10 14:59:10;;;;;;;93.90;36.60;;;;;;;-2.54;83.19;99196.30;433132;1269;97507;-42
2022/01/10 15:09:18;;;;;;;87.80;35.20;;;;;;;-2.56;83.05;99209.06;433181;1269;97933;-46
2022/01/10 15:29:41;;;;;;;101.60;33.80;;;;;;;-2.48;83.47;99238.64;428943;1270;5626227;-43
2022/01/10 15:39:48;;;;;;;65.60;27.90;;;;;;;-2.50;83.51;99258.29;432688;1270;98018;-43
2022/01/10 15:49:55;;;;;;;50.30;23.40;;;;;;;-2.46;83.77;99276.21;433094;1270;111238;-46
2022/01/10 16:00:04;;;;;;;54.30;24.60;;;;;;;-2.36;83.83;99295.39;433046;1270;108847;-45
2022/01/10 16:10:12;;;;;;;67.10;27.60;;;;;;;-2.32;84.14;99319.64;433099;1269;96647;-40
2022/01/10 16:20:19;;;;;;;46.50;22.40;;;;;;;-2.30;83.75;99337.19;433202;1269;109636;-43
2022/01/10 16:30:25;;;;;;;54.70;25.20;;;;;;;-2.23;83.91;99351.77;433232;1269;109209;-41
2022/01/10 16:40:35;;;;;;;64.70;28.00;;;;;;;-2.23;83.80;99370.23;433233;1269;97910;-40
2022/01/10 16:50:45;;;;;;;29.00;15.00;;;;;;;-2.18;83.82;99392.81;433182;1271;111282;-40
2022/01/10 17:01:02;;;;;;;45.90;23.10;;;;;;;-2.14;83.67;99403.55;432706;1270;109042;-40
2022/01/10 17:11:10;;;;;;;38.20;18.70;;;;;;;-2.17;83.62;99416.36;433195;1269;97897;-41
2022/01/10 17:21:18;;;;;;;32.20;16.40;;;;;;;-2.12;83.62;99432.73;433234;1271;110090;-44
2022/01/10 17:31:24;;;;;;;56.10;25.80;;;;;;;-2.11;83.78;99446.67;433249;1269;108250;-44
2022/01/10 17:41:32;;;;;;;37.70;19.30;;;;;;;-2.13;83.14;99464.44;433225;1270;97993;-43
2022/01/10 17:51:47;;;;;;;47.10;23.20;;;;;;;-2.09;83.52;99478.27;433163;1271;110879;-40
2022/01/10 18:01:55;;;;;;;64.00;27.30;;;;;;;-2.11;83.39;99498.66;433190;1270;108823;-44
2022/01/10 18:12:02;;;;;;;41.80;19.90;;;;;;;-2.12;82.99;99518.39;433212;1271;97926;-43
2022/01/10 18:22:10;;;;;;;48.90;22.70;;;;;;;-2.16;82.78;99529.31;432978;1269;108775;-45
2022/01/10 18:32:17;;;;;;;39.20;20.30;;;;;;;-2.28;82.38;99544.12;433014;1270;97503;-41
2022/01/10 18:42:24;;;;;;;37.90;18.30;;;;;;;-2.28;81.97;99557.35;432812;1270;97477;-43
2022/01/10 18:52:32;;;;;;;46.80;20.00;;;;;;;-2.36;81.74;99575.11;435207;1271;108670;-42
2022/01/10 19:02:41;;;;;;;28.50;12.90;;;;;;;-2.46;81.30;99591.48;432526;1270;109436;-41
2022/01/10 19:12:49;;;;;;;23.60;12.20;;;;;;;-2.46;80.45;99601.85;432557;1270;97891;-44
2022/01/10 19:22:56;;;;;;;31.70;16.00;;;;;;;-2.49;79.87;99609.11;432658;1269;108884;-43
2022/01/10 19:33:02;;;;;;;35.70;15.60;;;;;;;-2.51;79.33;99614.14;432699;1270;109014;-43
2022/01/10 19:43:11;;;;;;;32.10;12.90;;;;;;;-2.47;79.33;99623.02;432687;1269;97913;-45
2022/01/10 19:53:18;;;;;;;28.60;14.80;;;;;;;-2.42;79.25;99638.30;432863;1270;108841;-45
2022/01/10 20:03:26;;;;;;;35.90;15.50;;;;;;;-2.45;78.88;99656.88;432546;1270;108863;-44
2022/01/10 20:13:35;;;;;;;34.10;12.70;;;;;;;-2.50;78.72;99670.55;432990;1270;97894;-42
2022/01/10 20:23:40;;;;;;;18.20;9.50;;;;;;;-2.47;78.17;99678.56;432837;1270;110916;-41
2022/01/10 20:33:48;;;;;;;26.40;13.70;;;;;;;-2.44;78.20;99690.09;432889;1269;108858;-42
2022/01/10 20:43:55;;;;;;;34.20;15.60;;;;;;;-2.50;78.06;99696.20;432937;1270;97901;-41
2022/01/10 20:54:05;;;;;;;20.30;11.20;;;;;;;-2.51;77.38;99711.70;432909;1269;111230;-42
2022/01/10 21:04:13;;;;;;;37.10;15.40;;;;;;;-2.42;77.59;99725.84;432894;1270;108947;-43
2022/01/10 21:14:20;;;;;;;36.70;16.90;;;;;;;-2.45;77.59;99735.23;432950;1270;97743;-43
2022/01/10 21:24:28;;;;;;;39.70;19.70;;;;;;;-2.50;77.61;99745.62;432997;1269;111000;-40
2022/01/10 21:34:35;;;;;;;34.30;17.10;;;;;;;-2.55;77.46;99756.37;432906;1270;109052;-41
2022/01/10 21:44:42;;;;;;;66.10;25.10;;;;;;;-2.49;77.41;99765.23;432912;1269;97496;-43
2022/01/10 21:54:49;;;;;;;57.80;25.00;;;;;;;-2.48;77.32;99782.24;433024;1270;110757;-45
2022/01/10 22:04:56;;;;;;;46.20;23.80;;;;;;;-2.52;77.48;99795.30;432884;1270;108702;-42
2022/01/10 22:15:03;;;;;;;36.60;17.60;;;;;;;-2.59;77.23;99817.48;432885;1270;107808;-39
2022/01/10 22:35:20;;;;;;;41.50;20.00;;;;;;;-2.56;77.12;99842.59;432958;1270;108757;-41
2022/01/10 22:45:28;;;;;;;35.10;17.10;;;;;;;-2.62;76.27;99849.64;433002;1268;109137;-43
2022/01/10 22:55:35;;;;;;;26.70;14.80;;;;;;;-2.66;75.84;99858.08;432958;1270;96622;-43
2022/01/10 23:05:41;;;;;;;37.80;17.50;;;;;;;-2.56;76.30;99874.86;432913;1270;109006;-40
2022/01/10 23:15:48;;;;;;;44.70;20.10;;;;;;;-2.55;76.49;99881.39;433178;1269;98009;-40
2022/01/10 23:25:57;;;;;;;41.50;20.00;;;;;;;-2.62;76.24;99890.88;433055;1269;97939;-42
2022/01/10 23:36:04;;;;;;;45.20;21.40;;;;;;;-2.68;76.18;99889.08;433231;1269;111108;-40
2022/01/10 23:46:14;;;;;;;31.10;15.70;;;;;;;-2.66;75.97;99894.26;433144;1269;108642;-43
2022/01/10 23:56:20;;;;;;;42.10;18.60;;;;;;;-2.64;76.17;99897.58;433350;1269;97527;-44
